RYR6UL LDZD-LZIB
Flight info
| Callsign | RYR6UL |
|---|---|
| Flight time | 0h 48m |
| Altitude | 35000 |
| Route | PALEZ DCT OBUTI DCT NIGSI DCT BEGLA DCT KUVEX |
| Aircraft | A320/M-SDE3FGHIRWY/LB1 |
Departure
| Time | 2026-05-07 22:12 |
|---|---|
| Airport | Zadar Airport (LDZD) |
Arrival
| Time | 2026-05-07 23:01 |
|---|---|
| Airport | M. R. Štefánik Airport (LZIB) |
| Time | Latitude | Longitude | Altitude | Speed | Heading |
|---|---|---|---|---|---|
| 2026-05-07 22:01 | 44.09675 | 15.35433 | 271 ft | 0 kts | 326° |
| 2026-05-07 22:08 | 44.09681 | 15.35433 | 271 ft | 3 kts | 359° |
| 2026-05-07 22:08 | 44.09700 | 15.35445 | 271 ft | 4 kts | 48° |
| 2026-05-07 22:09 | 44.09706 | 15.35504 | 272 ft | 6 kts | 91° |
| 2026-05-07 22:09 | 44.09692 | 15.35534 | 275 ft | 3 kts | 155° |
| 2026-05-07 22:09 | 44.09664 | 15.35542 | 274 ft | 8 kts | 178° |
| 2026-05-07 22:09 | 44.09590 | 15.35544 | 274 ft | 11 kts | 179° |
| 2026-05-07 22:10 | 44.09504 | 15.35546 | 275 ft | 14 kts | 179° |
| 2026-05-07 22:10 | 44.09421 | 15.35559 | 278 ft | 10 kts | 164° |
| 2026-05-07 22:10 | 44.09373 | 15.35615 | 278 ft | 8 kts | 131° |
| 2026-05-07 22:10 | 44.09337 | 15.35671 | 279 ft | 7 kts | 132° |
| 2026-05-07 22:11 | 44.09296 | 15.35734 | 279 ft | 11 kts | 132° |
| 2026-05-07 22:11 | 44.09251 | 15.35737 | 276 ft | 7 kts | 226° |
| 2026-05-07 22:11 | 44.09246 | 15.35731 | 279 ft | 4 kts | 226° |
| 2026-05-07 22:11 | 44.09065 | 15.35508 | 276 ft | 76 kts | 222° |
| 2026-05-07 22:12 | 44.08480 | 15.34786 | 278 ft | 146 kts | 221° |
| 2026-05-07 22:12 | 44.07624 | 15.33729 | 657 ft | 169 kts | 221° |
| 2026-05-07 22:12 | 44.06776 | 15.32605 | 1539 ft | 167 kts | 222° |
| 2026-05-07 22:12 | 44.05965 | 15.31471 | 2424 ft | 161 kts | 223° |
| 2026-05-07 22:13 | 44.05176 | 15.30390 | 3179 ft | 158 kts | 220° |
| 2026-05-07 22:13 | 44.04371 | 15.29330 | 3702 ft | 168 kts | 221° |
| 2026-05-07 22:13 | 44.03475 | 15.28136 | 4014 ft | 188 kts | 224° |
| 2026-05-07 22:13 | 44.02810 | 15.26513 | 4410 ft | 206 kts | 259° |
| 2026-05-07 22:14 | 44.03103 | 15.24482 | 4783 ft | 233 kts | 302° |
| 2026-05-07 22:14 | 44.04418 | 15.23021 | 5214 ft | 260 kts | 340° |
| 2026-05-07 22:14 | 44.06273 | 15.22791 | 5829 ft | 277 kts | 5° |
| 2026-05-07 22:14 | 44.08184 | 15.23298 | 6690 ft | 282 kts | 13° |
| 2026-05-07 22:15 | 44.10087 | 15.24029 | 7549 ft | 285 kts | 15° |
| 2026-05-07 22:15 | 44.11988 | 15.24772 | 8416 ft | 290 kts | 14° |
| 2026-05-07 22:15 | 44.13960 | 15.25473 | 9281 ft | 294 kts | 12° |
| 2026-05-07 22:15 | 44.15973 | 15.26109 | 10117 ft | 299 kts | 11° |
| 2026-05-07 22:16 | 44.17958 | 15.27064 | 10873 ft | 306 kts | 24° |
| 2026-05-07 22:16 | 44.19942 | 15.28380 | 11213 ft | 328 kts | 24° |
| 2026-05-07 22:16 | 44.22074 | 15.29786 | 11492 ft | 349 kts | 24° |
| 2026-05-07 22:16 | 44.24305 | 15.31256 | 12090 ft | 358 kts | 24° |
| 2026-05-07 22:17 | 44.26579 | 15.32757 | 12827 ft | 363 kts | 24° |
| 2026-05-07 22:17 | 44.28877 | 15.34275 | 13571 ft | 368 kts | 24° |
| 2026-05-07 22:17 | 44.31205 | 15.35815 | 14254 ft | 372 kts | 24° |
| 2026-05-07 22:17 | 44.33556 | 15.37375 | 14901 ft | 376 kts | 24° |
| 2026-05-07 22:18 | 44.35933 | 15.38952 | 15550 ft | 380 kts | 24° |
| 2026-05-07 22:18 | 44.40737 | 15.42125 | 16836 ft | 389 kts | 24° |
| 2026-05-07 22:18 | 44.43191 | 15.43754 | 17450 ft | 393 kts | 24° |
| 2026-05-07 22:19 | 44.45671 | 15.45409 | 18063 ft | 397 kts | 24° |
| 2026-05-07 22:19 | 44.48176 | 15.47083 | 18653 ft | 401 kts | 24° |
| 2026-05-07 22:19 | 44.50706 | 15.48773 | 19177 ft | 405 kts | 23° |
| 2026-05-07 22:19 | 44.53261 | 15.50479 | 19713 ft | 409 kts | 23° |
| 2026-05-07 22:20 | 44.54967 | 15.51618 | 20074 ft | 412 kts | 23° |
| 2026-05-07 22:20 | 44.57591 | 15.53266 | 20609 ft | 414 kts | 18° |
| 2026-05-07 22:20 | 44.60351 | 15.54457 | 21144 ft | 417 kts | 13° |
| 2026-05-07 22:20 | 44.63156 | 15.55567 | 21686 ft | 421 kts | 12° |
| 2026-05-07 22:21 | 44.65986 | 15.56684 | 22209 ft | 424 kts | 12° |
| 2026-05-07 22:21 | 44.68841 | 15.57814 | 22728 ft | 428 kts | 12° |
| 2026-05-07 22:21 | 44.71718 | 15.58960 | 23208 ft | 432 kts | 12° |
| 2026-05-07 22:21 | 44.74621 | 15.60120 | 23683 ft | 435 kts | 12° |
| 2026-05-07 22:22 | 44.77550 | 15.61294 | 24090 ft | 439 kts | 12° |
| 2026-05-07 22:22 | 44.80495 | 15.62475 | 24506 ft | 442 kts | 12° |
| 2026-05-07 22:22 | 44.83455 | 15.63662 | 24917 ft | 444 kts | 12° |
| 2026-05-07 22:22 | 44.86438 | 15.64860 | 25318 ft | 446 kts | 12° |
| 2026-05-07 22:23 | 44.89429 | 15.66063 | 25702 ft | 449 kts | 12° |
| 2026-05-07 22:23 | 44.92439 | 15.67276 | 26083 ft | 451 kts | 12° |
| 2026-05-07 22:23 | 44.95463 | 15.68495 | 26469 ft | 453 kts | 12° |
| 2026-05-07 22:23 | 44.98504 | 15.69724 | 26831 ft | 456 kts | 11° |
| 2026-05-07 22:24 | 45.01563 | 15.70960 | 27186 ft | 458 kts | 11° |
| 2026-05-07 22:24 | 45.04639 | 15.72201 | 27548 ft | 461 kts | 11° |
| 2026-05-07 22:24 | 45.07730 | 15.73447 | 27892 ft | 463 kts | 11° |
| 2026-05-07 22:24 | 45.10840 | 15.74701 | 28246 ft | 465 kts | 11° |
| 2026-05-07 22:25 | 45.13917 | 15.75947 | 28579 ft | 468 kts | 11° |
| 2026-05-07 22:25 | 45.17057 | 15.77223 | 28899 ft | 470 kts | 11° |
| 2026-05-07 22:25 | 45.20208 | 15.78506 | 29213 ft | 472 kts | 11° |
| 2026-05-07 22:25 | 45.23374 | 15.79798 | 29520 ft | 475 kts | 11° |
| 2026-05-07 22:26 | 45.26554 | 15.81094 | 29824 ft | 477 kts | 11° |
| 2026-05-07 22:26 | 45.29749 | 15.82401 | 30108 ft | 479 kts | 12° |
| 2026-05-07 22:26 | 45.32959 | 15.83715 | 30338 ft | 481 kts | 12° |
| 2026-05-07 22:26 | 45.36182 | 15.85032 | 30560 ft | 483 kts | 11° |
| 2026-05-07 22:27 | 45.39418 | 15.86354 | 30776 ft | 485 kts | 11° |
| 2026-05-07 22:27 | 45.42665 | 15.87684 | 31023 ft | 486 kts | 11° |
| 2026-05-07 22:27 | 45.45859 | 15.88995 | 31329 ft | 485 kts | 11° |
| 2026-05-07 22:27 | 45.49105 | 15.90328 | 31634 ft | 485 kts | 11° |
| 2026-05-07 22:28 | 45.52343 | 15.91660 | 31942 ft | 484 kts | 11° |
| 2026-05-07 22:28 | 45.55580 | 15.92990 | 32249 ft | 484 kts | 11° |
| 2026-05-07 22:28 | 45.58810 | 15.94317 | 32555 ft | 483 kts | 11° |
| 2026-05-07 22:28 | 45.62039 | 15.95646 | 32869 ft | 483 kts | 11° |
| 2026-05-07 22:29 | 45.65276 | 15.96983 | 33179 ft | 482 kts | 11° |
| 2026-05-07 22:29 | 45.68496 | 15.98316 | 33476 ft | 482 kts | 11° |
| 2026-05-07 22:29 | 45.71719 | 15.99656 | 33780 ft | 482 kts | 11° |
| 2026-05-07 22:29 | 45.74893 | 16.00978 | 34081 ft | 481 kts | 11° |
| 2026-05-07 22:30 | 45.78152 | 16.02336 | 34348 ft | 481 kts | 11° |
| 2026-05-07 22:30 | 45.81320 | 16.03655 | 34611 ft | 480 kts | 11° |
| 2026-05-07 22:30 | 45.84520 | 16.04982 | 34878 ft | 479 kts | 11° |
| 2026-05-07 22:30 | 45.87728 | 16.06315 | 35047 ft | 479 kts | 11° |
| 2026-05-07 22:31 | 45.90922 | 16.07645 | 35083 ft | 477 kts | 12° |
| 2026-05-07 22:31 | 45.97287 | 16.10305 | 35081 ft | 476 kts | 12° |
| 2026-05-07 22:32 | 46.03651 | 16.12972 | 35084 ft | 476 kts | 12° |
| 2026-05-07 22:32 | 46.10017 | 16.15643 | 35094 ft | 476 kts | 12° |
| 2026-05-07 22:33 | 46.16392 | 16.18315 | 35084 ft | 477 kts | 12° |
| 2026-05-07 22:33 | 46.22757 | 16.20990 | 35094 ft | 477 kts | 12° |
| 2026-05-07 22:34 | 46.29121 | 16.23683 | 35075 ft | 477 kts | 12° |
| 2026-05-07 22:34 | 46.35488 | 16.26400 | 35075 ft | 477 kts | 12° |
| 2026-05-07 22:35 | 46.41821 | 16.29372 | 35069 ft | 479 kts | 17° |
| 2026-05-07 22:35 | 46.48037 | 16.32924 | 35072 ft | 481 kts | 19° |
| 2026-05-07 22:36 | 46.54227 | 16.36630 | 35064 ft | 481 kts | 19° |
| 2026-05-07 22:36 | 46.60443 | 16.40226 | 35066 ft | 480 kts | 18° |
| 2026-05-07 22:37 | 46.66676 | 16.43722 | 35065 ft | 480 kts | 18° |
| 2026-05-07 22:37 | 46.72917 | 16.47233 | 35067 ft | 481 kts | 18° |
| 2026-05-07 22:38 | 46.79149 | 16.50785 | 35060 ft | 481 kts | 18° |
| 2026-05-07 22:38 | 46.85342 | 16.54338 | 35060 ft | 481 kts | 18° |
| 2026-05-07 22:39 | 46.91578 | 16.57920 | 35059 ft | 481 kts | 18° |
| 2026-05-07 22:39 | 46.97819 | 16.61509 | 35058 ft | 482 kts | 18° |
| 2026-05-07 22:40 | 47.04060 | 16.65111 | 35048 ft | 483 kts | 18° |
| 2026-05-07 22:40 | 47.10311 | 16.68719 | 35050 ft | 484 kts | 18° |
| 2026-05-07 22:41 | 47.16584 | 16.72345 | 35047 ft | 484 kts | 18° |
| 2026-05-07 22:41 | 47.22860 | 16.75989 | 34997 ft | 486 kts | 18° |
| 2026-05-07 22:41 | 47.26018 | 16.77824 | 34060 ft | 492 kts | 18° |
| 2026-05-07 22:42 | 47.29239 | 16.79696 | 32725 ft | 501 kts | 18° |
| 2026-05-07 22:42 | 47.32492 | 16.81590 | 31687 ft | 503 kts | 19° |
| 2026-05-07 22:42 | 47.35736 | 16.83487 | 30823 ft | 501 kts | 19° |
| 2026-05-07 22:42 | 47.38957 | 16.85379 | 30061 ft | 496 kts | 19° |
| 2026-05-07 22:43 | 47.42154 | 16.87259 | 29276 ft | 491 kts | 19° |
| 2026-05-07 22:43 | 47.45305 | 16.89115 | 28552 ft | 485 kts | 19° |
| 2026-05-07 22:43 | 47.48428 | 16.90951 | 27845 ft | 480 kts | 19° |
| 2026-05-07 22:43 | 47.51515 | 16.92766 | 27159 ft | 475 kts | 20° |
| 2026-05-07 22:44 | 47.54571 | 16.94559 | 26504 ft | 470 kts | 20° |
| 2026-05-07 22:44 | 47.57596 | 16.96334 | 25867 ft | 465 kts | 20° |
| 2026-05-07 22:44 | 47.60592 | 16.98098 | 25253 ft | 461 kts | 20° |
| 2026-05-07 22:44 | 47.63554 | 16.99851 | 24653 ft | 457 kts | 20° |
| 2026-05-07 22:45 | 47.66486 | 17.01590 | 24065 ft | 452 kts | 20° |
| 2026-05-07 22:45 | 47.69400 | 17.03318 | 23460 ft | 449 kts | 20° |
| 2026-05-07 22:45 | 47.72286 | 17.05030 | 22810 ft | 445 kts | 20° |
| 2026-05-07 22:45 | 47.75147 | 17.06730 | 22208 ft | 441 kts | 20° |
| 2026-05-07 22:46 | 47.77985 | 17.08414 | 21612 ft | 437 kts | 21° |
| 2026-05-07 22:46 | 47.80619 | 17.10482 | 21172 ft | 433 kts | 35° |
| 2026-05-07 22:46 | 47.82795 | 17.13480 | 20922 ft | 422 kts | 50° |
| 2026-05-07 22:46 | 47.84386 | 17.17097 | 20518 ft | 414 kts | 64° |
| 2026-05-07 22:47 | 47.85425 | 17.21067 | 20015 ft | 410 kts | 70° |
| 2026-05-07 22:47 | 47.86382 | 17.25053 | 19500 ft | 407 kts | 70° |
| 2026-05-07 22:47 | 47.87323 | 17.29011 | 18985 ft | 404 kts | 70° |
| 2026-05-07 22:47 | 47.88256 | 17.32939 | 18488 ft | 401 kts | 70° |
| 2026-05-07 22:48 | 47.89190 | 17.36846 | 17948 ft | 398 kts | 69° |
| 2026-05-07 22:48 | 47.90425 | 17.40437 | 17413 ft | 393 kts | 53° |
| 2026-05-07 22:48 | 47.92291 | 17.43411 | 16889 ft | 388 kts | 37° |
| 2026-05-07 22:48 | 47.94582 | 17.45452 | 16360 ft | 382 kts | 21° |
| 2026-05-07 22:49 | 47.97085 | 17.46714 | 15844 ft | 379 kts | 16° |
| 2026-05-07 22:49 | 47.99579 | 17.47891 | 15549 ft | 370 kts | 16° |
| 2026-05-07 22:49 | 48.01990 | 17.49032 | 15419 ft | 356 kts | 16° |
| 2026-05-07 22:49 | 48.04269 | 17.50116 | 15278 ft | 332 kts | 16° |
| 2026-05-07 22:50 | 48.06413 | 17.51020 | 15160 ft | 308 kts | 6° |
| 2026-05-07 22:50 | 48.08456 | 17.50866 | 15005 ft | 286 kts | 342° |
| 2026-05-07 22:50 | 48.10197 | 17.49621 | 14630 ft | 274 kts | 320° |
| 2026-05-07 22:50 | 48.11555 | 17.47661 | 14127 ft | 271 kts | 313° |
| 2026-05-07 22:51 | 48.12864 | 17.45635 | 13599 ft | 270 kts | 313° |
| 2026-05-07 22:51 | 48.14164 | 17.43623 | 13056 ft | 268 kts | 313° |
| 2026-05-07 22:51 | 48.15499 | 17.41705 | 12491 ft | 266 kts | 326° |
| 2026-05-07 22:51 | 48.17216 | 17.40820 | 11953 ft | 263 kts | 359° |
| 2026-05-07 22:52 | 48.18938 | 17.41494 | 11382 ft | 263 kts | 33° |
| 2026-05-07 22:52 | 48.20321 | 17.43287 | 10752 ft | 264 kts | 44° |
| 2026-05-07 22:52 | 48.21642 | 17.45207 | 10206 ft | 264 kts | 45° |
| 2026-05-07 22:52 | 48.22955 | 17.47131 | 9654 ft | 263 kts | 45° |
| 2026-05-07 22:53 | 48.24257 | 17.49043 | 9083 ft | 261 kts | 45° |
| 2026-05-07 22:53 | 48.25547 | 17.50937 | 8522 ft | 258 kts | 45° |
| 2026-05-07 22:53 | 48.26828 | 17.52809 | 7974 ft | 256 kts | 44° |
| 2026-05-07 22:53 | 48.28100 | 17.54661 | 7431 ft | 254 kts | 44° |
| 2026-05-07 22:54 | 48.29359 | 17.56494 | 6889 ft | 251 kts | 42° |
| 2026-05-07 22:54 | 48.30826 | 17.57821 | 6349 ft | 246 kts | 13° |
| 2026-05-07 22:54 | 48.32506 | 17.57818 | 5916 ft | 243 kts | 342° |
| 2026-05-07 22:54 | 48.33931 | 17.56555 | 5552 ft | 239 kts | 315° |
| 2026-05-07 22:55 | 48.35101 | 17.54771 | 5180 ft | 239 kts | 313° |
| 2026-05-07 22:55 | 48.36094 | 17.52845 | 4992 ft | 229 kts | 292° |
| 2026-05-07 22:55 | 48.36329 | 17.50564 | 4866 ft | 218 kts | 262° |
| 2026-05-07 22:55 | 48.35771 | 17.48509 | 4735 ft | 213 kts | 232° |
| 2026-05-07 22:56 | 48.34733 | 17.46922 | 4605 ft | 213 kts | 225° |
| 2026-05-07 22:56 | 48.33665 | 17.45381 | 4480 ft | 213 kts | 225° |
| 2026-05-07 22:56 | 48.32615 | 17.43859 | 4371 ft | 212 kts | 225° |
| 2026-05-07 22:56 | 48.31563 | 17.42331 | 4129 ft | 209 kts | 226° |
| 2026-05-07 22:57 | 48.30520 | 17.40817 | 3862 ft | 208 kts | 226° |
| 2026-05-07 22:57 | 48.29483 | 17.39311 | 3582 ft | 207 kts | 226° |
| 2026-05-07 22:57 | 48.28450 | 17.37813 | 3320 ft | 206 kts | 226° |
| 2026-05-07 22:57 | 48.27423 | 17.36325 | 3068 ft | 203 kts | 227° |
| 2026-05-07 22:58 | 48.26414 | 17.34864 | 2762 ft | 199 kts | 227° |
| 2026-05-07 22:58 | 48.25431 | 17.33442 | 2499 ft | 193 kts | 228° |
| 2026-05-07 22:58 | 48.24472 | 17.32055 | 2241 ft | 190 kts | 228° |
| 2026-05-07 22:58 | 48.23528 | 17.30689 | 1995 ft | 186 kts | 228° |
| 2026-05-07 22:59 | 48.22627 | 17.29389 | 1743 ft | 172 kts | 229° |
| 2026-05-07 22:59 | 48.21815 | 17.28219 | 1532 ft | 153 kts | 229° |
| 2026-05-07 22:59 | 48.21076 | 17.27151 | 1330 ft | 143 kts | 228° |
| 2026-05-07 22:59 | 48.20375 | 17.26136 | 1113 ft | 138 kts | 227° |
| 2026-05-07 23:00 | 48.19693 | 17.25151 | 953 ft | 135 kts | 226° |
| 2026-05-07 23:00 | 48.19018 | 17.24179 | 756 ft | 134 kts | 226° |
| 2026-05-07 23:00 | 48.18348 | 17.23214 | 596 ft | 133 kts | 226° |
| 2026-05-07 23:00 | 48.17684 | 17.22253 | 433 ft | 129 kts | 227° |
| 2026-05-07 23:01 | 48.17115 | 17.21433 | 427 ft | 92 kts | 223° |
| 2026-05-07 23:01 | 48.16777 | 17.20945 | 424 ft | 43 kts | 223° |
| 2026-05-07 23:01 | 48.16618 | 17.20720 | 429 ft | 25 kts | 223° |
| 2026-05-07 23:01 | 48.16564 | 17.20619 | 430 ft | 10 kts | 262° |
| 2026-05-07 23:02 | 48.16606 | 17.20524 | 430 ft | 12 kts | 314° |
| 2026-05-07 23:02 | 48.16672 | 17.20421 | 433 ft | 15 kts | 314° |
| 2026-05-07 23:02 | 48.16750 | 17.20300 | 432 ft | 17 kts | 317° |
| 2026-05-07 23:02 | 48.16837 | 17.20176 | 423 ft | 13 kts | 315° |
| 2026-05-07 23:03 | 48.16835 | 17.20094 | 422 ft | 9 kts | 225° |
| 2026-05-07 23:03 | 48.16800 | 17.20041 | 429 ft | 1 kts | 224° |
| 2026-05-07 23:03 | 48.16797 | 17.20026 | 432 ft | 2 kts | 262° |
| 2026-05-07 23:03 | 48.16811 | 17.19989 | 425 ft | 6 kts | 313° |
| 2026-05-07 23:04 | 48.16828 | 17.19964 | 432 ft | 1 kts | 315° |
| 2026-05-07 23:04 | 48.16830 | 17.19961 | 432 ft | 0 kts | 315° |